• Join FlightAware (Why Join?)
  • Login
  • US Flag 
02:52PM EDT


 

Airport Tracker/Info


-or-


 

Live Flight TrackerFlight Track Log ✈ KAL643 ✈ 06-May-2013 ✈ RKSI / ICN - WSSS / SIN

Flight Track Log - Related Links

Times and Time Zones

All times are in EDT time to prevent confusion due to time zone crossing. See the KAL643 flight status page for this flight to view local times or setup timezone preferences in your user account.

Time Position Orientation Groundspeed Altitude Reporting Facility
EDT Latitude Longitude Course Direction KTS MPH feet Rate Location/Type
01:55AM 37.4460 126.1510 195° South 300 345 8,900  Level FlightAware
01:56AM 37.3870 126.1680 167° South 314 361 10,300 1,560 Climbing FlightAware
01:56AM 37.3510 126.2200 131° Southeast 352 405 11,000 1,200 Climbing FlightAware
01:57AM 37.3020 126.2870 133° Southeast 380 437 11,900 1,920 Climbing FlightAware
01:58AM 37.2230 126.3410 151° Southeast 393 452 13,900 2,220 Climbing FlightAware
01:58AM 37.1550 126.3790 156° South 407 468 15,100 1,860 Climbing FlightAware
01:59AM 37.0770 126.4230 156° South 426 490 16,600 1,920 Climbing FlightAware
02:00AM 37.0050 126.4640 156° South 425 489 17,900 1,020 Climbing FlightAware
02:00AM 36.9410 126.5010 155° Southeast 426 490 18,000 60 Climbing FlightAware
02:01AM 36.8810 126.5360 155° Southeast 426 490 18,000  Level FlightAware
02:02AM 36.8200 126.5720 155° Southeast 426 490 18,000  Level FlightAware
02:03AM 36.7440 126.6160 155° Southeast 426 490 18,000  Level FlightAware
02:03AM 36.6830 126.6510 155° Southeast 426 490 18,000 7,080 Level FlightAware
02:03AM 36.5750 126.6690 172° South 387 445 23,900 6,420 Climbing FlightAware
02:04AM 36.5230 126.7280 138° Southeast 387 445 23,900  Level FlightAware
02:05AM 36.4770 126.7780 139° Southeast 387 445 23,900  Level FlightAware
02:06AM 36.4320 126.8290 138° Southeast 387 445 23,900  Level FlightAware
02:06AM 36.3760 126.8920 138° Southeast 387 445 23,900  Level FlightAware
02:07AM 36.3300 126.9430 138° Southeast 387 445 23,900 300 Level FlightAware
02:10AM 36.1493 126.7773 217° Southwest  Level Estimated
02:11AM 36.0760 126.7103 216° Southwest  Level Estimated
02:12AM 36.0026 126.6435 216° Southwest  Level Estimated
02:13AM 35.9292 126.5768 216° Southwest  Level Estimated
02:14AM 35.8557 126.5102 216° Southwest  Level Estimated
02:15AM 35.7823 126.4437 216° Southwest  Level Estimated
02:16AM 35.7088 126.3774 216° Southwest  Level Estimated
02:17AM 35.6352 126.3112 216° Southwest  Level Estimated
02:18AM 35.5616 126.2451 216° Southwest  Level Estimated
02:19AM 35.4880 126.1791 216° Southwest  Level Estimated
02:20AM 35.4143 126.1133 216° Southwest  Level Estimated
02:21AM 35.3406 126.0475 216° Southwest  Level Estimated
02:22AM 35.2669 125.9819 216° Southwest  Level Estimated
02:23AM 35.1931 125.9164 216° Southwest  Level Estimated
02:24AM 35.1193 125.8511 216° Southwest  Level Estimated
02:25AM 35.0455 125.7858 216° Southwest  Level Estimated
02:26AM 34.9716 125.7207 216° Southwest  Level Estimated
02:27AM 34.8977 125.6556 216° Southwest  Level Estimated
02:28AM 34.8238 125.5908 216° Southwest  Level Estimated
02:29AM 34.7498 125.5260 216° Southwest  Level Estimated
02:30AM 34.6758 125.4613 216° Southwest  Level Estimated
02:31AM 34.6018 125.3967 216° Southwest  Level Estimated
02:32AM 34.5277 125.3323 216° Southwest  Level Estimated
02:33AM 34.4536 125.2680 216° Southwest  Level Estimated
02:34AM 34.3794 125.2038 216° Southwest  Level Estimated
02:35AM 34.3053 125.1396 216° Southwest  Level Estimated
02:36AM 34.2310 125.0757 215° Southwest  Level Estimated
02:37AM 34.1568 125.0118 215° Southwest  Level Estimated
02:38AM 34.0825 124.9480 215° Southwest  Level Estimated
02:39AM 34.0082 124.8844 215° Southwest  Level Estimated
02:40AM 33.9339 124.8208 215° Southwest  Level Estimated
02:41AM 33.8595 124.7574 215° Southwest  Level Estimated
02:42AM 33.7851 124.6941 215° Southwest  Level Estimated
02:43AM 33.7107 124.6309 215° Southwest  Level Estimated
02:44AM 33.6362 124.5678 215° Southwest  Level Estimated
02:45AM 33.5617 124.5048 215° Southwest  Level Estimated
02:46AM 33.4871 124.4419 215° Southwest  Level Estimated
02:46AM 31.1540 125.4270 215° Southwest 459 528 36,000  Level FlightAware
02:46AM 31.0900 125.4010 199° South 459 528 36,000  Level FlightAware
02:47AM 33.4126 124.3791 215° Southwest  Level Estimated
02:47AM 31.0210 125.3730 199° South 459 528 36,000  Level FlightAware
02:48AM 30.9360 125.3390 199° South 459 528 36,000  Level FlightAware
02:49AM 30.7630 125.2650 200° South 36,000  Level FlightAware
02:50AM 30.6810 125.2310 200° South 446 513 36,000  Level FlightAware
02:50AM 30.6120 125.2020 200° South 447 514 36,000  Level FlightAware
02:51AM 30.5130 125.1620 199° South 36,000  Level FlightAware
02:52AM 30.3990 125.1510 185° South 464 534 36,000  Level FlightAware
02:53AM 30.3040 125.1660 172° South 482 555 36,000  Level FlightAware
02:53AM 30.2240 125.1770 173° South 482 555 36,000  Level FlightAware
02:54AM 30.1490 125.1870 173° South 482 555 36,000  Level FlightAware
02:55AM 30.0380 125.1950 176° South 480 552 36,000  Level FlightAware
02:57AM 29.9031 125.0874 215° Southwest  Level FlightAware Approximate
02:58AM 29.8281 125.0277 215° Southwest  Level FlightAware Approximate
02:59AM 29.7530 124.9681 215° Southwest  Level FlightAware Approximate
03:00AM 29.6780 124.9086 215° Southwest  Level FlightAware Approximate
03:00AM 29.4550 124.9180 215° Southwest 438 504 36,000  Level FlightAware
03:00AM 29.3810 124.8570 216° Southwest 437 503 36,000  Level FlightAware
03:01AM 29.3050 124.7950 215° Southwest 438 504 36,000  Level FlightAware
03:02AM 29.2380 124.7400 216° Southwest 439 505 36,000  Level FlightAware
03:03AM 29.1700 124.6860 215° Southwest 439 505 36,000  Level FlightAware
03:03AM 29.0980 124.6270 216° Southwest 438 504 36,000  Level FlightAware
03:04AM 29.0270 124.5700 215° Southwest 438 504 36,000  Level FlightAware
03:05AM 28.9520 124.5090 215° Southwest 438 504 36,000  Level FlightAware
03:05AM 28.8920 124.4610 215° Southwest 436 502 36,000  Level FlightAware
03:06AM 28.8240 124.4060 215° Southwest 436 502 36,000  Level FlightAware
03:07AM 28.7590 124.3540 215° Southwest 436 502 36,000  Level FlightAware
03:07AM 28.7030 124.3100 215° Southwest 436 502 36,000  Level FlightAware
03:08AM 28.6470 124.2650 215° Southwest 436 502 36,000  Level FlightAware
03:09AM 28.5900 124.2200 215° Southwest 436 502 36,000  Level FlightAware
03:10AM 28.4700 124.1230 215° Southwest 436 502 36,000  Level FlightAware
03:10AM 28.3900 124.0600 215° Southwest 438 504 36,000  Level FlightAware
03:11AM 28.3310 124.0130 215° Southwest 438 504 36,000  Level FlightAware
03:12AM 28.2470 123.9450 215° Southwest 437 503 36,000  Level FlightAware
03:12AM 28.1960 123.9030 216° Southwest 437 503 36,000  Level FlightAware
03:13AM 28.1280 123.8470 216° Southwest 437 503 36,000  Level FlightAware
03:14AM 28.0720 123.8010 216° Southwest 437 503 36,000  Level FlightAware
03:14AM 28.0170 123.7560 216° Southwest 437 503 36,000  Level FlightAware
03:15AM 27.9470 123.6980 216° Southwest 437 503 36,000  Level FlightAware
03:16AM 27.8920 123.6530 216° Southwest 437 503 36,000  Level FlightAware
03:17AM 27.8360 123.6070 216° Southwest 437 503 36,000  Level FlightAware
03:17AM 27.7800 123.5610 216° Southwest 437 503 36,000  Level FlightAware
03:18AM 27.7250 123.5160 216° Southwest 437 503 36,000  Level FlightAware
03:19AM 27.6690 123.4700 216° Southwest 437 503 36,000  Level FlightAware
03:19AM 27.6000 123.4130 216° Southwest 437 503 36,000  Level FlightAware
03:20AM 27.5440 123.3670 216° Southwest 437 503 36,000  Level FlightAware
03:21AM 27.4890 123.3220 216° Southwest 437 503 36,000  Level FlightAware
03:21AM 27.4330 123.2760 216° Southwest 437 503 36,000  Level FlightAware
03:22AM 27.2010 123.0980 214° Southwest 445 512 36,000  Level FlightAware
03:23AM 27.1350 123.0450 216° Southwest 445 512 36,000  Level FlightAware
03:23AM 27.0640 122.9890 215° Southwest 445 512 36,000  Level FlightAware
03:24AM 26.9790 122.9210 215° Southwest 445 512 36,000  Level FlightAware
03:25AM 26.9110 122.8670 215° Southwest 446 513 36,000  Level FlightAware
03:26AM 26.8380 122.8100 215° Southwest 446 513 36,000  Level FlightAware
03:26AM 26.7760 122.7600 216° Southwest 446 513 36,000  Level FlightAware
03:27AM 26.7010 122.7010 215° Southwest 447 514 36,000  Level FlightAware
03:28AM 26.6260 122.6420 215° Southwest 448 516 36,000  Level FlightAware
03:28AM 26.5570 122.5870 215° Southwest 447 514 36,000  Level FlightAware
03:29AM 26.4830 122.5280 216° Southwest 447 514 36,000  Level FlightAware
03:30AM 26.4150 122.4750 215° Southwest 448 516 36,000  Level FlightAware
03:30AM 26.3550 122.4280 215° Southwest 448 516 36,000  Level FlightAware
03:31AM 26.2690 122.3610 215° Southwest 448 516 36,000  Level FlightAware
03:32AM 26.2010 122.3070 215° Southwest 448 516 36,000  Level FlightAware
03:33AM 26.1260 122.2490 215° Southwest 450 518 36,000  Level FlightAware
03:33AM 26.0570 122.1960 215° Southwest 450 518 36,000  Level FlightAware
03:34AM 25.9890 122.1440 215° Southwest 450 518 36,000  Level FlightAware
03:35AM 25.9100 122.0840 214° Southwest 450 518 36,000  Level FlightAware
03:35AM 25.8410 122.0310 215° Southwest 451 519 36,000  Level FlightAware
03:36AM 25.7720 121.9780 215° Southwest 452 520 36,000  Level FlightAware
03:37AM 25.6970 121.9210 214° Southwest 451 519 36,000  Level FlightAware
03:38AM 25.6270 121.8680 214° Southwest 451 519 36,000  Level FlightAware
03:38AM 25.5490 121.8070 215° Southwest 452 520 36,000  Level FlightAware
03:39AM 25.4790 121.7530 215° Southwest 452 520 36,000  Level FlightAware
03:40AM 25.4040 121.6960 214° Southwest 453 521 36,000  Level FlightAware
03:40AM 25.3340 121.6420 215° Southwest 454 522 36,000  Level FlightAware
03:41AM 25.2650 121.5890 215° Southwest 454 522 36,000  Level FlightAware
03:42AM 25.2120 121.5540 211° Southwest 463 533 36,000  Level FlightAware
03:42AM 25.1780 121.5460 192° South 476 548 36,000  Level FlightAware
03:42AM 25.0900 121.5730 164° South 504 580 36,000  Level FlightAware
03:43AM 24.9990 121.6300 150° Southeast 505 581 36,000  Level FlightAware
03:44AM 24.9300 121.6750 149° Southeast 506 582 36,000  Level FlightAware
03:45AM 24.8540 121.7230 150° Southeast 507 583 36,000  Level FlightAware
03:45AM 24.7660 121.7770 151° Southeast 508 585 36,000  Level FlightAware
03:46AM 24.6610 121.8410 151° Southeast 508 585 36,000  Level FlightAware
03:47AM 24.5850 121.8880 151° Southeast 508 585 36,000  Level FlightAware
03:47AM 24.4930 121.9270 159° South 497 572 36,000  Level FlightAware
03:48AM 24.4050 121.9280 179° South 483 556 36,000  Level FlightAware
03:49AM 24.3120 121.9090 191° South 481 554 36,000  Level FlightAware
03:49AM 24.2490 121.8950 191° South 481 554 36,000  Level FlightAware
03:50AM 24.1070 121.8650 191° South 480 552 36,000  Level FlightAware
03:51AM 24.0210 121.8470 191° South 480 552 36,000  Level FlightAware
03:52AM 23.9350 121.8300 190° South 481 554 36,000  Level FlightAware
03:52AM 23.8450 121.8110 191° South 480 552 36,000  Level FlightAware
03:53AM 23.7450 121.7910 190° South 481 554 36,000  Level FlightAware
03:54AM 23.6680 121.7750 191° South 482 555 36,000  Level FlightAware
03:54AM 23.5920 121.7600 190° South 482 555 36,000  Level FlightAware
03:55AM 23.4980 121.7400 191° South 483 556 36,000  Level FlightAware
03:56AM 23.4050 121.7190 192° South 480 552 36,000  Level FlightAware
03:56AM 23.3180 121.6930 195° South 477 549 36,000  Level FlightAware
03:57AM 23.2170 121.6590 197° South 475 547 36,000  Level FlightAware
03:58AM 23.1480 121.6370 196° South 473 544 36,000  Level FlightAware
03:59AM 23.0140 121.5940 196° South 473 544 36,000  Level FlightAware
03:59AM 22.9300 121.5670 196° South 474 545 36,000  Level FlightAware
04:00AM 22.8440 121.5400 196° South 474 545 36,000  Level FlightAware
04:01AM 22.7540 121.5110 197° South 475 547 36,000  Level FlightAware
04:01AM 22.6760 121.4810 200° South 467 537 36,000  Level FlightAware
04:02AM 22.5910 121.4160 215° Southwest 460 529 36,000  Level FlightAware
04:03AM 22.5240 121.3580 219° Southwest 460 529 36,000  Level FlightAware
04:03AM 22.4580 121.3000 219° Southwest 459 528 36,000  Level FlightAware
04:04AM 22.3870 121.2390 218° Southwest 458 527 36,000  Level FlightAware
04:05AM 22.3160 121.1780 218° Southwest 458 527 36,000  Level FlightAware
04:06AM 22.2450 121.1160 219° Southwest 458 527 36,000  Level FlightAware
04:06AM 22.1790 121.0590 219° Southwest 458 527 36,000  Level FlightAware
04:07AM 22.1120 121.0010 219° Southwest 458 527 36,000  Level FlightAware
04:08AM 22.0470 120.9460 218° Southwest 458 527 36,000  Level FlightAware
04:08AM 21.9920 120.8990 218° Southwest 459 528 36,000  Level FlightAware
04:09AM 21.9150 120.8290 220° Southwest 456 525 36,000  Level FlightAware
04:10AM 21.8530 120.7660 223° Southwest 456 525 36,000  Level FlightAware
04:10AM 21.7890 120.6980 225° Southwest 456 525 36,000  Level FlightAware
04:11AM 21.7260 120.6320 224° Southwest 456 525 36,000  Level FlightAware
04:12AM 21.6590 120.5620 224° Southwest 458 527 36,000  Level FlightAware
04:13AM 21.6030 120.5040 224° Southwest 458 527 36,000  Level FlightAware
04:13AM 21.5310 120.4300 224° Southwest 459 528 36,000  Level FlightAware
04:14AM 21.4740 120.3700 224° Southwest 459 528 36,000  Level FlightAware
04:15AM 21.4000 120.2940 224° Southwest 459 528 36,000  Level FlightAware
04:15AM 21.3370 120.2280 224° Southwest 459 528 36,000  Level FlightAware
04:16AM 21.2760 120.1650 224° Southwest 458 527 36,000  Level FlightAware
04:17AM 21.2230 120.1100 224° Southwest 457 526 36,000  Level FlightAware
04:17AM 21.1510 120.0360 224° Southwest 457 526 36,000  Level FlightAware
04:18AM 21.0870 119.9700 224° Southwest 458 527 36,000  Level FlightAware
04:19AM 21.0300 119.9100 225° Southwest 459 528 36,000  Level FlightAware
04:20AM 20.9480 119.8240 224° Southwest 458 527 36,000  Level FlightAware
04:20AM 20.8830 119.7530 226° Southwest 459 528 36,000  Level FlightAware
04:21AM 20.8320 119.6980 225° Southwest 460 529 36,000  Level FlightAware
04:22AM 20.7590 119.6200 225° Southwest 461 531 36,000  Level FlightAware
04:22AM 20.7010 119.5570 225° Southwest 461 531 36,000  Level FlightAware
04:24AM 20.6030 119.4520 225° Southwest 463 533 36,000  Level FlightAware
04:24AM 20.5530 119.4000 224° Southwest 463 533 36,000  Level FlightAware
04:25AM 20.4540 119.2930 225° Southwest 463 533 36,000  Level FlightAware
04:26AM 20.3540 119.1860 225° Southwest 463 533 36,000  Level FlightAware
04:27AM 20.3120 119.1410 225° Southwest 463 533 36,000  Level FlightAware
04:28AM 20.2450 119.0700 225° Southwest 463 533 36,000  Level FlightAware
04:28AM 20.1680 118.9890 225° Southwest 462 532 36,000  Level FlightAware
04:29AM 20.1170 118.9340 225° Southwest 462 532 36,000  Level FlightAware
04:30AM 20.0530 118.8650 225° Southwest 462 532 36,000  Level FlightAware
04:31AM 20.0010 118.8110 224° Southwest 462 532 36,000  Level FlightAware
04:31AM 19.9500 118.7560 225° Southwest 462 532 36,000  Level FlightAware
04:32AM 19.8980 118.7010 225° Southwest 462 532 36,000  Level FlightAware
04:33AM 19.8470 118.6470 225° Southwest 462 532 36,000  Level FlightAware
04:33AM 19.7960 118.5920 225° Southwest 462 532 36,000  Level FlightAware
04:34AM 19.7310 118.5240 225° Southwest 462 532 36,000  Level FlightAware
04:35AM 19.6800 118.4690 225° Southwest 462 532 36,000  Level FlightAware
04:35AM 19.6290 118.4150 225° Southwest 462 532 36,000  Level FlightAware
04:36AM 19.5770 118.3600 225° Southwest 462 532 36,000  Level FlightAware
04:37AM 19.5260 118.3060 225° Southwest 462 532 36,000  Level FlightAware
04:38AM 19.4620 118.2370 225° Southwest 462 532 36,000  Level FlightAware
04:40AM 19.3233 118.1167 219° Southwest  Level Estimated
04:41AM 19.2528 118.0556 219° Southwest  Level Estimated
04:42AM 19.1822 117.9946 219° Southwest  Level Estimated
04:43AM 19.1116 117.9336 219° Southwest  Level Estimated
04:44AM 19.0410 117.8726 219° Southwest  Level Estimated
04:45AM 18.9704 117.8117 219° Southwest  Level Estimated
04:46AM 18.8997 117.7509 219° Southwest  Level Estimated
04:47AM 18.8290 117.6901 219° Southwest  Level Estimated
04:48AM 18.7583 117.6294 219° Southwest  Level Estimated
04:49AM 18.6876 117.5687 219° Southwest  Level Estimated
04:50AM 18.6169 117.5081 219° Southwest  Level Estimated
04:51AM 18.5462 117.4475 219° Southwest  Level Estimated
04:52AM 18.4754 117.3870 219° Southwest  Level Estimated
04:53AM 18.4046 117.3265 219° Southwest  Level Estimated
04:54AM 18.3338 117.2661 219° Southwest  Level Estimated
04:55AM 18.2630 117.2057 219° Southwest  Level Estimated
04:56AM 18.1921 117.1453 219° Southwest  Level Estimated
04:57AM 18.1212 117.0851 219° Southwest  Level Estimated
04:58AM 18.0503 117.0248 219° Southwest  Level Estimated
04:59AM 17.9794 116.9646 219° Southwest  Level Estimated
05:00AM 17.9085 116.9045 219° Southwest  Level Estimated
05:01AM 17.8376 116.8444 219° Southwest  Level Estimated
05:02AM 17.7666 116.7844 219° Southwest  Level Estimated
05:03AM 17.6956 116.7244 219° Southwest  Level Estimated
05:04AM 17.6246 116.6644 219° Southwest  Level Estimated
05:05AM 17.5536 116.6045 219° Southwest  Level Estimated
05:06AM 17.4826 116.5447 219° Southwest  Level Estimated
05:07AM 17.4116 116.4849 219° Southwest  Level Estimated
05:08AM 17.3405 116.4251 219° Southwest  Level Estimated
05:09AM 17.2694 116.3654 219° Southwest  Level Estimated
05:10AM 17.1983 116.3057 219° Southwest  Level Estimated
05:11AM 17.1272 116.2461 219° Southwest  Level Estimated
05:12AM 17.0560 116.1865 219° Southwest  Level Estimated
05:13AM 16.9849 116.1270 219° Southwest  Level Estimated
05:14AM 16.9137 116.0675 219° Southwest  Level Estimated
05:15AM 16.8425 116.0081 219° Southwest  Level Estimated
05:16AM 16.7713 115.9487 219° Southwest  Level Estimated
05:17AM 16.7001 115.8893 219° Southwest  Level Estimated
05:18AM 16.6288 115.8300 219° Southwest  Level Estimated
05:19AM 16.5576 115.7708 219° Southwest  Level Estimated
05:20AM 16.4863 115.7115 219° Southwest  Level Estimated
05:21AM 16.4150 115.6524 219° Southwest  Level Estimated
05:22AM 16.3437 115.5932 219° Southwest  Level Estimated
05:23AM 16.2724 115.5341 218° Southwest  Level Estimated
05:24AM 16.2010 115.4751 218° Southwest  Level Estimated
05:25AM 16.1297 115.4161 218° Southwest  Level Estimated
05:26AM 16.0583 115.3571 218° Southwest  Level Estimated
05:27AM 15.9869 115.2982 218° Southwest  Level Estimated
05:28AM 15.9155 115.2393 218° Southwest  Level Estimated
05:29AM 15.8441 115.1805 218° Southwest  Level Estimated
05:30AM 15.7727 115.1217 218° Southwest  Level Estimated
05:31AM 15.7012 115.0630 218° Southwest  Level Estimated
05:32AM 15.6298 115.0042 218° Southwest  Level Estimated
05:33AM 15.5583 114.9456 218° Southwest  Level Estimated
05:34AM 15.4868 114.8869 218° Southwest  Level Estimated
05:35AM 15.4153 114.8283 218° Southwest  Level Estimated
05:36AM 15.3437 114.7698 218° Southwest  Level Estimated
05:37AM 15.2722 114.7113 218° Southwest  Level Estimated
05:38AM 15.2006 114.6528 218° Southwest  Level Estimated
05:39AM 15.1290 114.5944 218° Southwest  Level Estimated
05:40AM 15.0575 114.5360 218° Southwest  Level Estimated
05:41AM 14.9858 114.4777 218° Southwest  Level Estimated
05:42AM 14.9142 114.4193 218° Southwest  Level Estimated
05:43AM 14.8426 114.3611 218° Southwest  Level Estimated
05:44AM 14.7709 114.3028 218° Southwest  Level Estimated
05:45AM 14.6993 114.2447 218° Southwest  Level Estimated
05:46AM 14.6276 114.1865 218° Southwest  Level Estimated
05:47AM 14.5559 114.1284 218° Southwest  Level Estimated
05:48AM 14.4842 114.0703 218° Southwest  Level Estimated
05:49AM 14.4125 114.0123 218° Southwest  Level Estimated
05:50AM 14.3407 113.9542 218° Southwest  Level Estimated
05:51AM 14.2690 113.8963 218° Southwest  Level Estimated
05:52AM 14.1972 113.8383 218° Southwest  Level Estimated
05:53AM 14.1254 113.7804 218° Southwest  Level Estimated
05:54AM 14.0536 113.7226 218° Southwest  Level Estimated
05:55AM 13.9818 113.6648 218° Southwest  Level Estimated
05:56AM 13.9100 113.6070 218° Southwest  Level Estimated
05:57AM 13.8382 113.5492 218° Southwest  Level Estimated
05:58AM 13.7663 113.4915 218° Southwest  Level Estimated
05:59AM 13.6945 113.4338 218° Southwest  Level Estimated
06:00AM 13.6226 113.3762 218° Southwest  Level Estimated
06:01AM 13.5507 113.3186 218° Southwest  Level Estimated
06:02AM 13.4788 113.2610 218° Southwest  Level Estimated
06:03AM 13.4069 113.2035 218° Southwest  Level Estimated
06:04AM 13.3350 113.1460 218° Southwest  Level Estimated
06:05AM 13.2630 113.0885 218° Southwest  Level Estimated
06:06AM 13.1911 113.0311 218° Southwest  Level Estimated
06:07AM 13.1191 112.9736 218° Southwest  Level Estimated
06:08AM 13.0471 112.9163 218° Southwest  Level Estimated
06:09AM 12.9752 112.8589 218° Southwest  Level Estimated
06:10AM 12.9032 112.8016 218° Southwest  Level Estimated
06:11AM 12.8312 112.7444 218° Southwest  Level Estimated
06:12AM 12.7591 112.6871 218° Southwest  Level Estimated
06:13AM 12.6871 112.6299 218° Southwest  Level Estimated
06:13AM 9.5790 109.8840 218° Southwest 486 559 36,000  Level FlightAware
06:14AM 12.6150 112.5728 218° Southwest  Level Estimated
06:14AM 9.5090 109.8360 214° Southwest 485 558 36,000  Level FlightAware
06:15AM 9.4180 109.7720 215° Southwest 486 559 36,000  Level FlightAware
06:16AM 9.3200 109.7020 215° Southwest 487 560 36,000  Level FlightAware
06:16AM 9.2620 109.6620 214° Southwest 487 560 36,000  Level FlightAware
06:17AM 9.1990 109.6190 214° Southwest 487 560 36,000  Level FlightAware
06:18AM 9.1190 109.5650 214° Southwest 487 560 36,000  Level FlightAware
06:18AM 9.0560 109.5210 215° Southwest 487 560 36,000  Level FlightAware
06:19AM 8.9920 109.4780 214° Southwest 487 560 36,000  Level FlightAware
06:20AM 8.8650 109.3830 216° Southwest 486 559 36,000  Level FlightAware
06:20AM 8.7920 109.3330 214° Southwest 486 559 36,000  Level FlightAware
06:21AM 8.7290 109.2900 214° Southwest 486 559 36,000  Level FlightAware
06:22AM 8.6650 109.2470 214° Southwest 486 559 36,000  Level FlightAware
06:23AM 8.5400 109.1570 215° Southwest 486 559 36,000  Level FlightAware
06:23AM 8.4650 109.1050 214° Southwest 485 558 36,000  Level FlightAware
06:24AM 8.3810 109.0470 214° Southwest 482 555 36,000  Level FlightAware
06:25AM 8.3130 109.0000 214° Southwest 482 555 36,000  Level FlightAware
06:25AM 8.2500 108.9570 214° Southwest 482 555 36,000  Level FlightAware
06:26AM 8.1870 108.9140 214° Southwest 482 555 36,000  Level FlightAware
06:27AM 8.1240 108.8710 214° Southwest 482 555 36,000  Level FlightAware
06:27AM 8.0620 108.8280 214° Southwest 482 555 36,000  Level FlightAware
06:28AM 7.9830 108.7750 214° Southwest 482 555 36,000  Level FlightAware
06:29AM 7.9200 108.7320 214° Southwest 482 555 36,000  Level FlightAware
06:29AM 7.8570 108.6890 214° Southwest 482 555 36,000  Level FlightAware
06:30AM 7.7940 108.6460 214° Southwest 482 555 36,000  Level FlightAware
06:31AM 7.7320 108.6040 214° Southwest 482 555 36,000  Level FlightAware
06:32AM 7.6530 108.5500 214° Southwest 482 555 36,000  Level FlightAware
06:32AM 7.5900 108.5070 214° Southwest 482 555 36,000  Level FlightAware
06:33AM 7.3740 108.3500 216° Southwest 483 556 36,000  Level FlightAware
06:34AM 7.2950 108.2960 214° Southwest 483 556 36,000  Level FlightAware
06:35AM 7.2320 108.2540 213° Southwest 483 556 36,000  Level FlightAware
06:35AM 7.1690 108.2110 214° Southwest 483 556 36,000  Level FlightAware
06:36AM 7.1060 108.1680 214° Southwest 483 556 36,000  Level FlightAware
06:37AM 7.0430 108.1250 214° Southwest 483 556 36,000  Level FlightAware
06:37AM 6.9650 108.0720 214° Southwest 483 556 36,000  Level FlightAware
06:38AM 6.9020 108.0290 214° Southwest 483 556 36,000  Level FlightAware
06:39AM 6.8390 107.9860 214° Southwest 483 556 36,000  Level FlightAware
06:39AM 6.7760 107.9430 214° Southwest 483 556 36,000  Level FlightAware
06:40AM 6.7130 107.9000 214° Southwest 483 556 36,000  Level FlightAware
06:41AM 6.6340 107.8470 214° Southwest 483 556 36,000  Level FlightAware
06:42AM 6.5710 107.8040 214° Southwest 483 556 36,000  Level FlightAware
06:42AM 6.5080 107.7610 214° Southwest 483 556 36,000  Level FlightAware
06:45AM 6.3452 107.6407 216° Southwest  Level Estimated
06:46AM 6.2718 107.5864 216° Southwest  Level Estimated
06:47AM 6.1983 107.5322 216° Southwest  Level Estimated
06:48AM 6.1248 107.4779 216° Southwest  Level Estimated
06:49AM 6.0514 107.4237 216° Southwest  Level Estimated
06:50AM 5.9779 107.3695 216° Southwest  Level Estimated
06:51AM 5.9044 107.3154 216° Southwest  Level Estimated
06:52AM 5.8309 107.2612 216° Southwest  Level Estimated
06:53AM 5.7575 107.2070 216° Southwest  Level Estimated
06:54AM 5.6840 107.1529 216° Southwest  Level Estimated
06:55AM 5.6105 107.0988 216° Southwest  Level Estimated
06:56AM 5.5370 107.0446 216° Southwest  Level Estimated
06:57AM 5.4634 106.9905 216° Southwest  Level Estimated
06:58AM 5.3899 106.9365 216° Southwest  Level Estimated
06:59AM 5.3164 106.8824 216° Southwest  Level Estimated
06:59AM 4.5320 106.3810 216° Southwest 489 563 36,000  Level FlightAware
06:59AM 4.4560 106.3290 214° Southwest 488 562 36,000  Level FlightAware
07:00AM 4.3930 106.2860 214° Southwest 488 562 36,000  Level FlightAware
07:01AM 4.3130 106.2330 213° Southwest 488 562 36,000  Level FlightAware
07:01AM 4.2490 106.1890 214° Southwest 488 562 36,000  Level FlightAware
07:02AM 4.1860 106.1460 214° Southwest 488 562 36,000  Level FlightAware
07:03AM 4.1220 106.1030 214° Southwest 488 562 36,000  Level FlightAware
07:04AM 4.0500 105.9190 249° West 487 560 36,000  Level FlightAware
07:04AM 3.9850 105.8400 230° Southwest 487 560 36,000  Level FlightAware
07:05AM 3.9280 105.7700 231° Southwest 487 560 36,000  Level FlightAware
07:06AM 3.8750 105.7050 231° Southwest 487 560 36,000  Level FlightAware
07:06AM 3.8080 105.6220 231° Southwest 487 560 36,000  Level FlightAware
07:07AM 3.7450 105.5440 231° Southwest 486 559 36,000  Level FlightAware
07:08AM 3.6860 105.4720 231° Southwest 486 559 36,000  Level FlightAware
07:09AM 3.6230 105.3940 231° Southwest 484 557 36,000  Level FlightAware
07:09AM 3.5670 105.3250 231° Southwest 485 558 36,000  Level FlightAware
07:10AM 3.5140 105.2590 231° Southwest 485 558 36,000 -120 Level FlightAware
07:11AM 3.4460 105.1760 231° Southwest 483 556 35,900 -540 Descending FlightAware
07:11AM 3.3820 105.1110 225° Southwest 482 555 35,300 -1,080 Descending FlightAware
07:12AM 3.3110 105.0410 225° Southwest 485 558 34,400 -1,140 Descending FlightAware
07:13AM 3.2440 104.9860 219° Southwest 487 560 33,700 -1,380 Descending FlightAware
07:13AM 3.1580 104.9570 199° South 496 571 32,600 -1,440 Descending FlightAware
07:14AM 3.0500 104.9550 181° South 501 577 31,700 -1,020 Descending FlightAware
07:15AM 2.9580 104.9440 187° South 486 559 31,200 -900 Descending FlightAware
07:15AM 2.8850 104.9020 210° Southwest 462 532 30,500 -1,140 Descending FlightAware
07:16AM 2.8330 104.8260 236° Southwest 437 503 29,600 -1,140 Descending FlightAware
07:17AM 2.8220 104.7550 261° West 418 481 29,000 -1,140 Descending FlightAware
07:18AM 2.8230 104.6660 271° West 402 463 28,000 -1,140 Descending FlightAware
07:18AM 2.8080 104.5900 259° West 396 456 27,300 -1,080 Descending FlightAware
07:19AM 2.7830 104.5240 249° West 396 456 26,600 -1,020 Descending FlightAware
07:20AM 2.7550 104.4460 250° West 392 451 25,900 -1,020 Descending FlightAware
07:20AM 2.7290 104.3770 249° West 384 442 25,200 -1,200 Descending FlightAware
07:21AM 2.6900 104.3210 235° Southwest 380 437 24,300 -1,560 Descending FlightAware
07:22AM 2.6370 104.2580 230° Southwest 379 436 23,000 -1,680 Descending FlightAware
07:22AM 2.5910 104.2040 230° Southwest 374 430 22,000 -1,500 Descending FlightAware
07:23AM 2.5540 104.1700 223° Southwest 367 422 21,300 -1,380 Descending FlightAware
07:24AM 2.4920 104.1510 197° South 352 405 20,400 -1,440 Descending FlightAware
07:24AM 2.4190 104.1440 185° South 347 399 19,300 -1,440 Descending FlightAware
07:25AM 2.3560 104.1390 185° South 339 390 18,400 -1,320 Descending FlightAware
07:26AM 2.2940 104.1330 186° South 331 381 17,600 -1,380 Descending FlightAware
07:26AM 2.2250 104.1270 185° South 328 377 16,500 -1,440 Descending FlightAware
07:27AM 2.1640 104.1210 186° South 320 368 15,600 -1,200 Descending FlightAware
07:28AM 2.0980 104.1150 185° South 322 371 14,800 -1,080 Descending FlightAware
07:29AM 2.0390 104.1100 185° South 318 366 14,100 -1,020 Descending FlightAware
07:29AM 1.9710 104.1050 184° South 316 364 13,400 -900 Descending FlightAware
07:30AM 1.9160 104.1050 180° South 312 359 12,900 -780 Descending FlightAware
07:31AM 1.8540 104.1060 179° South 309 356 12,400 -720 Descending FlightAware
07:31AM 1.7930 104.1060 180° South 307 353 11,900 -720 Descending FlightAware
07:32AM 1.7440 104.1060 180° South 305 351 11,500 -720 Descending FlightAware
07:33AM 1.6800 104.1060 180° South 282 325 11,000 -600 Descending FlightAware
07:33AM 1.6250 104.1070 179° South 266 306 10,600 -600 Descending FlightAware
07:34AM 1.5730 104.1130 173° South 263 303 10,200 -720 Descending FlightAware
07:35AM 1.5380 104.1180 172° South 265 305 9,800 -720 Descending FlightAware
07:35AM 1.5000 104.1240 171° South 266 306 9,500 -780 Descending FlightAware
07:36AM 1.4710 104.1280 172° South 266 306 9,100 -1,020 Descending FlightAware
07:36AM 1.4350 104.1210 191° South 271 312 8,600 -900 Descending FlightAware
07:36AM 1.4050 104.1080 203° Southwest 267 307 8,300 -780 Descending FlightAware
07:37AM 1.3710 104.0940 202° Southwest 265 305 7,900 -780 Descending FlightAware
07:37AM 1.3440 104.0820 204° Southwest 260 299 7,600 -660 Descending FlightAware
07:38AM 1.3100 104.0690 201° Southwest 261 300 7,300 -720 Descending FlightAware
07:38AM 1.2760 104.0560 201° Southwest 260 299 6,900 -900 Descending FlightAware
07:39AM 1.2650 104.0510 204° Southwest 259 298 6,700 -1,080 Descending FlightAware
07:39AM 1.2320 104.0380 201° Southwest 253 291 6,200 -1,140 Descending FlightAware
07:40AM 1.1980 104.0260 199° South 252 290 5,600 -1,140 Descending FlightAware
07:40AM 1.1700 104.0150 201° Southwest 249 287 5,200 -1,140 Descending FlightAware
07:40AM 1.1420 103.9960 214° Southwest 247 284 4,600 -1,080 Descending FlightAware
07:41AM 1.1370 103.9820 250° West 246 283 4,400 -1,080 Descending FlightAware
07:41AM 1.1300 103.9530 256° West 244 281 3,900 -1,200 Descending FlightAware
07:41AM 1.1250 103.9310 257° West 243 280 3,500 -960 Descending FlightAware
07:42AM 1.1350 103.9080 294° West 231 266 3,200 -780 Descending FlightAware
07:42AM 1.1500 103.9000 332° Northwest 220 253 3,000 -720 Descending FlightAware
07:42AM 1.1580 103.9000 360° North 217 250 2,900 -480 Descending FlightAware
07:43AM 1.1880 103.9100 18° North 197 227 2,700 -240 Descending FlightAware
07:43AM 1.2130 103.9200 22° Northeast 194 223 2,700 -240 Level FlightAware
07:44AM 1.2330 103.9280 22° Northeast 195 224 2,500 -660 Descending FlightAware
07:44AM 1.2570 103.9390 25° Northeast 181 208 2,100 -960 Descending FlightAware
07:44AM 1.2690 103.9440 23° Northeast 171 197 1,800 -900 Descending FlightAware
07:45AM 1.2850 103.9510 24° Northeast 157 181 1,500 -780 Descending FlightAware
07:45AM 1.2960 103.9550 20° North 155 178 1,300 -840 Descending FlightAware
07:46AM 1.3160 103.9630 22° Northeast 151 174 900 -780 Descending FlightAware
07:46AM 1.3310 103.9700 25° Northeast 148 170 600 -720 Descending FlightAware
07:46AM 1.3480 103.9770 22° Northeast 151 174 300 -720 Descending FlightAware